Time;durP1;ratioP1;P1;durP2;ratioP2;P2;SDS_P1;SDS_P2;PMS_P1;PMS_P2;Temp;Humidity;BMP_temperature;BMP_pressure;BME280_temperature;BME280_humidity;BME280_pressure;Samples;Min_cycle;Max_cycle;Signal;HPM_P1;HPM_P2
2021/07/05 00:02:14;;;;;;;;;;;;;;;26.69;36.91;99995.59;5077030;28;1902;-39
2021/07/05 00:04:42;;;;;;;;;;;;;;;26.82;37.06;99989.44;5077144;28;794;-43
2021/07/05 00:07:08;;;;;;;;;;;;;;;26.88;36.50;99986.78;5077708;28;776;-40
2021/07/05 00:09:33;;;;;;;;;;;;;;;26.90;36.09;99984.72;5058989;28;800;-37
2021/07/05 00:11:58;;;;;;;;;;;;;;;26.82;36.51;99986.75;5076862;28;742;-40
2021/07/05 00:14:24;;;;;;;;;;;;;;;26.74;36.48;99985.06;5076854;28;950;-38
2021/07/05 00:16:49;;;;;;;;;;;;;;;26.76;36.48;99982.97;5076931;28;716;-37
2021/07/05 00:19:14;;;;;;;;;;;;;;;26.72;36.47;99982.56;5076743;28;639;-39
2021/07/05 00:21:40;;;;;;;;;;;;;;;26.74;36.68;99979.66;5076626;28;1893;-41
2021/07/05 00:24:05;;;;;;;;;;;;;;;26.76;36.61;99983.81;5075915;28;795;-38
2021/07/05 00:26:30;;;;;;;;;;;;;;;26.89;36.63;99983.03;5076450;28;804;-40
2021/07/05 00:28:56;;;;;;;;;;;;;;;27.00;36.21;99981.66;5076911;28;1065;-38
2021/07/05 00:31:21;;;;;;;;;;;;;;;26.95;36.22;99977.88;5076634;28;835;-36
2021/07/05 00:33:46;;;;;;;;;;;;;;;26.88;36.49;99969.75;5076774;28;835;-41
2021/07/05 00:36:11;;;;;;;;;;;;;;;26.87;36.34;99971.63;5076778;28;862;-39
2021/07/05 00:38:37;;;;;;;;;;;;;;;26.82;36.31;99971.41;5077157;28;811;-39
2021/07/05 00:41:02;;;;;;;;;;;;;;;26.86;36.20;99969.13;5076618;28;820;-38
2021/07/05 00:43:29;;;;;;;;;;;;;;;26.84;36.31;99966.63;5076189;28;1972;-37
2021/07/05 00:45:54;;;;;;;;;;;;;;;26.85;36.44;99968.31;5058192;28;974;-39
2021/07/05 00:48:20;;;;;;;;;;;;;;;27.00;36.91;99960.06;5076450;28;1076;-38
2021/07/05 00:50:45;;;;;;;;;;;;;;;26.96;36.54;99958.78;5076738;28;743;-37
2021/07/05 00:53:10;;;;;;;;;;;;;;;26.98;36.30;99956.72;5076561;28;772;-38
2021/07/05 00:55:36;;;;;;;;;;;;;;;26.89;36.59;99953.34;5076295;28;748;-40
2021/07/05 00:58:01;;;;;;;;;;;;;;;26.85;36.32;99954.81;5076888;28;791;-40
2021/07/05 01:00:26;;;;;;;;;;;;;;;26.85;36.14;99953.97;5076349;28;1107;-39
2021/07/05 01:02:52;;;;;;;;;;;;;;;26.76;36.34;99964.09;5076949;28;1946;-40
2021/07/05 01:05:17;;;;;;;;;;;;;;;26.75;36.41;99955.19;5058601;28;784;-36
2021/07/05 01:07:42;;;;;;;;;;;;;;;26.82;36.02;99959.78;5076333;28;835;-44
2021/07/05 01:10:08;;;;;;;;;;;;;;;26.75;36.27;99959.72;5076674;28;748;-40
2021/07/05 01:12:33;;;;;;;;;;;;;;;26.85;36.17;99962.06;5076030;28;795;-36
2021/07/05 01:14:59;;;;;;;;;;;;;;;26.83;36.45;99958.72;5076037;28;950;-38
2021/07/05 01:17:24;;;;;;;;;;;;;;;26.88;37.40;99969.75;5076087;28;776;-41
2021/07/05 01:19:50;;;;;;;;;;;;;;;27.01;37.09;99953.66;5075992;28;792;-38
2021/07/05 01:22:16;;;;;;;;;;;;;;;27.00;36.59;99953.81;5076608;28;1909;-37
2021/07/05 01:24:41;;;;;;;;;;;;;;;26.96;36.58;99958.78;5076267;28;787;-41
2021/07/05 01:27:07;;;;;;;;;;;;;;;26.93;36.56;99953.78;5075521;28;831;-38
2021/07/05 01:29:32;;;;;;;;;;;;;;;26.92;36.88;99954.00;5075591;28;955;-43
2021/07/05 01:31:58;;;;;;;;;;;;;;;26.78;36.83;99957.47;5075984;28;799;-45
2021/07/05 01:34:23;;;;;;;;;;;;;;;26.81;36.80;99955.41;5059407;28;836;-43
2021/07/05 01:36:48;;;;;;;;;;;;;;;26.80;36.62;99964.53;5080257;28;824;-42
2021/07/05 01:39:14;;;;;;;;;;;;;;;26.86;36.55;99955.66;5080093;28;826;-41
2021/07/05 01:41:39;;;;;;;;;;;;;;;26.86;36.71;99958.34;5079377;28;1906;-43
2021/07/05 01:44:04;;;;;;;;;;;;;;;27.06;36.84;99954.94;5079560;28;962;-38
2021/07/05 01:46:30;;;;;;;;;;;;;;;27.09;36.84;99952.63;5079608;28;840;-37
2021/07/05 01:48:55;;;;;;;;;;;;;;;26.99;36.35;99958.38;5079765;28;1181;-41
2021/07/05 01:51:20;;;;;;;;;;;;;;;26.98;36.32;99954.03;5080010;28;764;-37
2021/07/05 01:53:45;;;;;;;;;;;;;;;26.92;36.25;99954.84;5079614;28;764;-38
2021/07/05 01:56:11;;;;;;;;;;;;;;;26.86;36.42;99947.56;5079247;28;998;-37
2021/07/05 01:58:36;;;;;;;;;;;;;;;26.88;36.31;99943.59;5079613;28;767;-41
2021/07/05 02:01:02;;;;;;;;;;;;;;;26.84;36.60;99939.63;5079233;28;966;-39
2021/07/05 02:03:27;;;;;;;;;;;;;;;26.83;36.37;99947.94;5079459;28;1894;-39
2021/07/05 02:05:52;;;;;;;;;;;;;;;26.86;36.58;99948.38;5079703;28;851;-39
2021/07/05 02:08:18;;;;;;;;;;;;;;;27.05;36.84;99956.78;5079489;28;747;-39
2021/07/05 02:10:43;;;;;;;;;;;;;;;27.05;36.43;99955.94;5079072;28;839;-36
2021/07/05 02:13:13;;;;;;;;;;;;;;;26.99;36.13;99974.56;5079736;28;830;-37
2021/07/05 02:15:39;;;;;;;;;;;;;;;26.96;36.05;99977.69;5078662;28;1005;-39
2021/07/05 02:18:04;;;;;;;;;;;;;;;26.80;36.33;99972.63;5079211;28;722;-36
2021/07/05 02:20:29;;;;;;;;;;;;;;;26.87;36.38;99979.75;5079795;28;819;-38
2021/07/05 02:22:55;;;;;;;;;;;;;;;26.92;36.32;99978.28;5078745;28;1890;-38
2021/07/05 02:25:28;;;;;;;;;;;;;;;26.83;36.54;99983.00;5061221;28;865;-36
2021/07/05 02:27:56;;;;;;;;;;;;;;;26.83;36.76;99986.56;5079234;28;748;-39
2021/07/05 02:30:22;;;;;;;;;;;;;;;26.96;37.07;99987.66;5078443;28;1010;-38
2021/07/05 02:32:48;;;;;;;;;;;;;;;27.10;37.28;99989.41;5060470;28;793;-40
2021/07/05 02:35:14;;;;;;;;;;;;;;;27.12;36.86;100000.00;5078963;28;902;-38
2021/07/05 02:37:39;;;;;;;;;;;;;;;27.04;36.75;100003.72;5078637;28;522;-38
2021/07/05 02:40:08;;;;;;;;;;;;;;;26.94;36.51;100006.75;5078919;28;799;-38
2021/07/05 02:42:34;;;;;;;;;;;;;;;26.83;36.48;100001.91;5078909;28;1964;-40
2021/07/05 02:45:00;;;;;;;;;;;;;;;26.83;36.37;100002.75;5078320;28;923;-41
2021/07/05 02:47:25;;;;;;;;;;;;;;;26.86;36.40;100002.34;5077757;28;1117;-41
2021/07/05 02:49:51;;;;;;;;;;;;;;;26.84;36.37;100006.28;5078865;28;831;-39
2021/07/05 02:52:16;;;;;;;;;;;;;;;26.86;36.60;100001.53;5078899;28;879;-36
2021/07/05 02:54:41;;;;;;;;;;;;;;;26.92;36.56;100002.56;5078447;28;815;-39
2021/07/05 02:57:07;;;;;;;;;;;;;;;27.06;37.17;100008.91;5078572;28;896;-39
2021/07/05 02:59:32;;;;;;;;;;;;;;;27.02;36.65;100008.47;5078177;28;1037;-41
2021/07/05 03:01:57;;;;;;;;;;;;;;;26.98;36.49;100012.56;5078391;28;1906;-37
2021/07/05 03:04:23;;;;;;;;;;;;;;;26.90;36.67;100005.47;5078356;28;946;-36
2021/07/05 03:06:48;;;;;;;;;;;;;;;26.35;40.10;100009.72;5060249;28;945;-32
2021/07/05 03:09:13;;;;;;;;;;;;;;;25.89;41.07;100017.16;5043717;28;1092;-33
2021/07/05 03:11:39;;;;;;;;;;;;;;;25.88;40.52;100023.56;5078049;28;760;-35
2021/07/05 03:14:06;;;;;;;;;;;;;;;25.90;40.77;100015.31;5059615;28;931;-36
2021/07/05 03:16:31;;;;;;;;;;;;;;;25.28;43.75;100010.25;5077682;28;916;-32
2021/07/05 03:18:56;;;;;;;;;;;;;;;26.11;41.30;100009.06;5060263;28;1175;-36
2021/07/05 03:21:22;;;;;;;;;;;;;;;26.35;41.23;100006.16;5077887;28;851;-33
2021/07/05 03:23:47;;;;;;;;;;;;;;;26.44;41.05;100015.78;5077845;28;1954;-36
2021/07/05 03:26:12;;;;;;;;;;;;;;;26.50;41.18;100006.06;5077938;28;831;-35
2021/07/05 03:28:38;;;;;;;;;;;;;;;25.73;43.07;100007.47;5077893;28;748;-41
2021/07/05 03:31:03;;;;;;;;;;;;;;;25.15;44.75;100002.88;5077730;28;954;-41
2021/07/05 03:33:28;;;;;;;;;;;;;;;24.73;45.97;100011.38;5077573;28;858;-36
2021/07/05 03:35:54;;;;;;;;;;;;;;;24.04;48.00;100014.00;5077401;28;752;-43
2021/07/05 03:38:19;;;;;;;;;;;;;;;23.86;48.80;100006.25;5077787;28;759;-38
2021/07/05 03:40:45;;;;;;;;;;;;;;;24.32;47.67;100010.78;5060347;28;728;-33
2021/07/05 03:43:10;;;;;;;;;;;;;;;24.41;47.60;100011.53;5077513;28;1879;-40
2021/07/05 03:45:43;;;;;;;;;;;;;;;24.04;48.99;100000.56;5077175;28;943;-33
2021/07/05 03:48:09;;;;;;;;;;;;;;;23.62;49.89;100004.56;5077404;28;1215;-42
2021/07/05 03:50:35;;;;;;;;;;;;;;;23.69;49.95;100006.34;5059615;28;784;-45
2021/07/05 03:53:00;;;;;;;;;;;;;;;23.80;49.86;100007.81;5059881;28;808;-42
2021/07/05 03:55:26;;;;;;;;;;;;;;;24.60;47.58;100006.66;5076959;28;732;-44
2021/07/05 03:57:52;;;;;;;;;;;;;;;25.19;44.75;100004.16;5077703;28;795;-44
2021/07/05 04:00:19;;;;;;;;;;;;;;;25.50;43.92;100008.44;5039496;28;1263;-40
2021/07/05 04:02:45;;;;;;;;;;;;;;;25.71;43.39;100006.81;5038690;28;1906;-40
2021/07/05 04:05:11;;;;;;;;;;;;;;;25.74;44.11;100002.94;5039492;28;883;-48
2021/07/05 04:07:36;;;;;;;;;;;;;;;25.88;42.71;99999.34;5057203;28;727;-40
2021/07/05 04:10:03;;;;;;;;;;;;;;;26.08;42.32;99997.81;5038976;28;724;-44
2021/07/05 04:12:28;;;;;;;;;;;;;;;26.15;42.40;100001.41;5057719;28;772;-44
2021/07/05 04:14:54;;;;;;;;;;;;;;;26.15;42.92;100006.81;5066402;28;951;-44
2021/07/05 04:17:19;;;;;;;;;;;;;;;26.13;42.95;99998.09;5076862;28;870;-45
2021/07/05 04:19:45;;;;;;;;;;;;;;;26.15;42.77;99998.72;5077365;28;775;-45
2021/07/05 04:22:17;;;;;;;;;;;;;;;26.14;42.31;99997.88;5059187;28;1901;-44
2021/07/05 04:24:43;;;;;;;;;;;;;;;26.00;43.52;100001.50;5076801;28;1479;-43
2021/07/05 04:27:08;;;;;;;;;;;;;;;26.22;41.85;100002.31;5076849;28;901;-43
2021/07/05 04:29:34;;;;;;;;;;;;;;;26.23;41.46;99992.34;5076574;28;963;-45
2021/07/05 04:31:59;;;;;;;;;;;;;;;26.28;41.76;99990.75;5076781;28;791;-43
2021/07/05 04:34:24;;;;;;;;;;;;;;;25.90;43.96;99988.34;5076952;28;804;-43
2021/07/05 04:36:50;;;;;;;;;;;;;;;25.61;45.31;99979.38;5076794;28;739;-43
2021/07/05 04:39:15;;;;;;;;;;;;;;;25.21;46.25;99985.94;5076705;28;815;-46
2021/07/05 04:41:40;;;;;;;;;;;;;;;26.01;44.54;99995.06;5076925;28;1889;-48
2021/07/05 04:44:06;;;;;;;;;;;;;;;26.37;43.46;99994.19;5076101;28;1002;-51
2021/07/05 04:46:31;;;;;;;;;;;;;;;26.61;42.79;99991.22;5076530;28;803;-42
2021/07/05 04:48:57;;;;;;;;;;;;;;;26.64;43.04;99985.41;5076215;28;1093;-47
2021/07/05 04:51:25;;;;;;;;;;;;;;;26.74;42.78;99983.16;5076077;28;988;-47
2021/07/05 04:53:51;;;;;;;;;;;;;;;26.75;42.74;99989.41;5076257;28;835;-48
2021/07/05 04:56:16;;;;;;;;;;;;;;;26.86;42.34;99990.72;5076417;28;775;-51
2021/07/05 04:58:41;;;;;;;;;;;;;;;26.86;42.83;99991.53;5076596;28;937;-51
2021/07/05 05:01:07;;;;;;;;;;;;;;;26.91;42.89;99990.94;5064768;28;943;-51
2021/07/05 05:03:37;;;;;;;;;;;;;;;26.98;42.42;99997.22;5056110;28;1882;-50
2021/07/05 05:06:02;;;;;;;;;;;;;;;26.91;42.82;99990.94;5055787;28;1072;-43
2021/07/05 05:08:27;;;;;;;;;;;;;;;27.11;42.34;99987.56;5056767;28;759;-45
2021/07/05 05:10:56;;;;;;;;;;;;;;;27.24;42.10;99987.56;5045106;28;896;-45
2021/07/05 05:13:21;;;;;;;;;;;;;;;27.18;42.36;99991.09;5063296;28;839;-44
2021/07/05 05:15:46;;;;;;;;;;;;;;;27.24;42.10;99992.97;5079136;28;955;-44
2021/07/05 05:18:12;;;;;;;;;;;;;;;27.19;42.06;99987.38;5083110;28;811;-45
2021/07/05 05:20:37;;;;;;;;;;;;;;;27.18;42.33;99980.28;5082699;28;819;-48
2021/07/05 05:23:02;;;;;;;;;;;;;;;27.24;42.15;99992.97;5083079;28;1957;-45
2021/07/05 05:25:28;;;;;;;;;;;;;;;27.21;42.18;99995.28;5048629;28;1242;-44
2021/07/05 05:27:53;;;;;;;;;;;;;;;27.28;42.20;99998.00;5048232;28;1488;-44
2021/07/05 05:30:25;;;;;;;;;;;;;;;27.27;42.01;99989.06;5047263;28;1333;-45
2021/07/05 05:32:50;;;;;;;;;;;;;;;27.33;41.92;99996.34;5082946;28;791;-49
2021/07/05 05:35:21;;;;;;;;;;;;;;;26.71;43.93;99999.75;5065649;28;890;-43
2021/07/05 05:37:47;;;;;;;;;;;;;;;26.65;44.55;99998.72;5083043;28;1448;-42
2021/07/05 05:40:13;;;;;;;;;;;;;;;26.50;44.37;99992.59;5048709;28;1048;-42
2021/07/05 05:42:38;;;;;;;;;;;;;;;26.44;45.04;99996.06;5065515;28;1968;-43
2021/07/05 05:45:06;;;;;;;;;;;;;;;26.40;44.78;99984.84;5047691;28;1113;-41
2021/07/05 05:47:32;;;;;;;;;;;;;;;26.35;45.19;99984.59;5064283;28;1509;-42
2021/07/05 05:49:57;;;;;;;;;;;;;;;26.26;45.66;99984.72;5048561;28;1222;-42
2021/07/05 05:52:23;;;;;;;;;;;;;;;26.57;45.56;99981.84;5064401;28;830;-42
2021/07/05 05:54:48;;;;;;;;;;;;;;;26.71;44.82;99978.19;5048372;28;1535;-45
2021/07/05 05:57:26;;;;;;;;;;;;;;;26.50;45.19;99981.78;5082781;28;786;-44
2021/07/05 05:59:53;;;;;;;;;;;;;;;26.58;45.74;99976.25;5063814;28;1158;-45
2021/07/05 06:02:19;;;;;;;;;;;;;;;26.71;45.81;99983.56;5064977;28;1906;-44
2021/07/05 06:04:47;;;;;;;;;;;;;;;26.78;45.47;99981.75;5048354;28;1214;-43
2021/07/05 06:07:12;;;;;;;;;;;;;;;27.03;44.83;99977.75;5064503;28;1221;-43
2021/07/05 06:09:38;;;;;;;;;;;;;;;27.35;43.92;99979.94;5048069;28;1521;-40
2021/07/05 06:12:04;;;;;;;;;;;;;;;27.47;43.16;99972.91;5065539;28;743;-44
2021/07/05 06:14:29;;;;;;;;;;;;;;;27.24;43.94;99982.16;5064055;28;1474;-44
2021/07/05 06:16:55;;;;;;;;;;;;;;;27.49;43.31;99983.50;5082530;28;861;-43
2021/07/05 06:19:20;;;;;;;;;;;;;;;27.37;44.12;99978.69;5064805;28;1742;-42
2021/07/05 06:21:45;;;;;;;;;;;;;;;27.48;43.87;99974.56;5077704;28;1898;-44
2021/07/05 06:24:11;;;;;;;;;;;;;;;27.31;44.95;99976.78;5045127;28;1353;-43
2021/07/05 06:26:40;;;;;;;;;;;;;;;27.23;45.81;99980.53;5079204;28;814;-43
2021/07/05 06:29:05;;;;;;;;;;;;;;;27.83;43.83;99975.47;5043767;28;1099;-45
2021/07/05 06:31:35;;;;;;;;;;;;;;;27.98;43.46;99980.66;5060923;28;1549;-42
2021/07/05 06:34:01;;;;;;;;;;;;;;;28.00;43.45;99973.19;5079426;28;803;-44
2021/07/05 06:36:27;;;;;;;;;;;;;;;28.07;43.89;99978.59;5045034;28;1202;-39
2021/07/05 06:38:53;;;;;;;;;;;;;;;28.28;43.35;99979.44;5044630;28;1274;-45
2021/07/05 06:41:24;;;;;;;;;;;;;;;28.51;42.06;99976.28;5061231;28;1344;-43
2021/07/05 06:43:53;;;;;;;;;;;;;;;27.88;43.98;99970.28;5058095;28;1894;-43
2021/07/05 06:46:23;;;;;;;;;;;;;;;28.07;43.54;99978.59;5046851;28;1166;-44
2021/07/05 06:48:51;;;;;;;;;;;;;;;28.09;43.13;99979.22;5041986;28;1154;-43
2021/07/05 06:51:17;;;;;;;;;;;;;;;28.35;42.71;99981.13;5036144;28;1148;-43
2021/07/05 06:53:43;;;;;;;;;;;;;;;28.32;42.49;99975.25;5071721;22;2053;-34
2021/07/05 06:56:08;;;;;;;;;;;;;;;28.50;42.08;99979.19;5058884;28;747;-36
2021/07/05 06:58:34;;;;;;;;;;;;;;;28.55;41.74;99974.81;5058819;28;799;-35
2021/07/05 07:01:00;;;;;;;;;;;;;;;28.73;41.36;99979.56;5058828;28;963;-36
2021/07/05 07:03:26;;;;;;;;;;;;;;;28.61;42.16;99981.28;5058829;28;1976;-36
2021/07/05 07:05:52;;;;;;;;;;;;;;;28.57;42.12;99980.03;5058331;28;732;-34
2021/07/05 07:08:17;;;;;;;;;;;;;;;28.68;41.85;99984.78;5058310;28;811;-33
2021/07/05 07:10:42;;;;;;;;;;;;;;;28.58;41.71;99984.38;5058749;28;806;-34
2021/07/05 07:13:09;;;;;;;;;;;;;;;28.52;41.34;99977.13;5058410;28;808;-34
2021/07/05 07:15:37;;;;;;;;;;;;;;;28.48;41.57;99976.72;5058457;28;1009;-34
2021/07/05 07:18:59;;;;;;;;;;;;;;;28.55;41.09;99979.41;5058313;28;755;-34
2021/07/05 07:20:48;;;;;;;;;;;;;;;28.58;41.22;99971.69;5044349;28;1536;-36
2021/07/05 07:23:13;;;;;;;;;;;;;;;28.81;41.06;99977.69;5058222;28;1905;-36
2021/07/05 07:25:38;;;;;;;;;;;;;;;28.82;40.64;99977.47;5058199;28;743;-36
2021/07/05 07:28:04;;;;;;;;;;;;;;;28.89;39.79;99976.59;5058081;28;743;-36
2021/07/05 07:30:29;;;;;;;;;;;;;;;28.88;39.58;99983.06;5057984;28;997;-36
2021/07/05 07:32:54;;;;;;;;;;;;;;;29.02;39.51;99978.44;5057723;28;791;-37
2021/07/05 07:35:19;;;;;;;;;;;;;;;29.02;39.67;99976.59;5057964;28;737;-40
2021/07/05 07:37:46;;;;;;;;;;;;;;;29.10;39.71;99978.19;5058283;28;799;-42
2021/07/05 07:40:16;;;;;;;;;;;;;;;29.17;39.85;99970.06;5058144;28;795;-37
2021/07/05 07:42:41;;;;;;;;;;;;;;;29.25;40.02;99971.66;5057856;28;1967;-37
2021/07/05 07:45:07;;;;;;;;;;;;;;;29.26;39.98;99973.34;5057518;28;958;-35
2021/07/05 07:47:32;;;;;;;;;;;;;;;29.17;40.15;99970.06;5057848;28;775;-40
2021/07/05 07:49:58;;;;;;;;;;;;;;;29.19;39.61;99973.38;5057664;28;809;-39
2021/07/05 07:52:26;;;;;;;;;;;;;;;29.23;39.20;99984.63;5060981;28;1122;-39
2021/07/05 07:54:51;;;;;;;;;;;;;;;29.26;39.31;99982.28;5077363;28;806;-39
2021/07/05 07:57:16;;;;;;;;;;;;;;;29.29;39.15;99989.16;5077709;28;795;-39
2021/07/05 07:59:43;;;;;;;;;;;;;;;29.40;38.87;99990.34;5077050;28;1010;-38
2021/07/05 08:02:08;;;;;;;;;;;;;;;29.32;39.05;99981.44;5077109;28;1914;-37
2021/07/05 08:04:33;;;;;;;;;;;;;;;29.35;39.25;99982.88;5077693;28;802;-37
2021/07/05 08:06:59;;;;;;;;;;;;;;;29.37;38.79;99988.91;5077304;28;815;-39
2021/07/05 08:09:24;;;;;;;;;;;;;;;29.39;39.19;99985.97;5077132;28;795;-38
2021/07/05 08:11:49;;;;;;;;;;;;;;;29.25;39.41;99994.19;5077663;28;755;-38
2021/07/05 08:14:14;;;;;;;;;;;;;;;29.34;38.95;99994.75;5076825;28;943;-38
2021/07/05 08:16:40;;;;;;;;;;;;;;;29.31;39.21;99984.38;5077118;28;835;-40
2021/07/05 08:19:05;;;;;;;;;;;;;;;29.31;39.14;99985.19;5076305;28;1126;-35
2021/07/05 08:21:30;;;;;;;;;;;;;;;29.38;38.77;99987.84;5076967;28;806;-37
2021/07/05 08:23:56;;;;;;;;;;;;;;;29.29;39.23;99984.59;5076686;28;1902;-38
2021/07/05 08:26:21;;;;;;;;;;;;;;;29.37;39.28;99982.66;5077530;28;748;-34
2021/07/05 08:28:47;;;;;;;;;;;;;;;29.37;39.18;99985.34;5076138;28;939;-37
2021/07/05 08:31:12;;;;;;;;;;;;;;;29.29;39.62;99983.75;5077133;28;815;-38
2021/07/05 08:33:37;;;;;;;;;;;;;;;29.35;39.50;99980.16;5077115;28;806;-37
2021/07/05 08:36:03;;;;;;;;;;;;;;;29.26;39.64;99990.41;5076719;28;817;-35
2021/07/05 08:38:28;;;;;;;;;;;;;;;29.41;39.03;99979.28;5076878;28;731;-35
2021/07/05 08:40:55;;;;;;;;;;;;;;;29.45;38.87;99982.41;5070021;28;766;-39
2021/07/05 08:43:24;;;;;;;;;;;;;;;29.44;39.31;99983.47;5056124;28;1902;-38
2021/07/05 08:45:50;;;;;;;;;;;;;;;29.37;39.32;99988.91;5070734;28;943;-36
2021/07/05 08:48:15;;;;;;;;;;;;;;;29.41;39.44;99990.13;5072628;28;1232;-34
2021/07/05 08:50:45;;;;;;;;;;;;;;;29.41;39.72;99986.59;5056138;28;801;-36
2021/07/05 08:53:10;;;;;;;;;;;;;;;29.50;39.02;99988.00;5057297;28;1272;-38
2021/07/05 08:55:36;;;;;;;;;;;;;;;29.48;39.60;99983.84;5057055;28;847;-36
2021/07/05 08:58:01;;;;;;;;;;;;;;;29.53;39.37;99986.75;5056500;28;768;-38
2021/07/05 09:00:27;;;;;;;;;;;;;;;29.49;39.88;99974.66;5070150;28;970;-39
2021/07/05 09:02:52;;;;;;;;;;;;;;;29.49;39.31;99972.78;5058812;28;1976;-35
2021/07/05 09:05:18;;;;;;;;;;;;;;;29.48;39.14;99983.84;5076168;28;791;-36
2021/07/05 09:08:02;;;;;;;;;;;;;;;29.50;38.90;99979.88;5076642;28;799;-38
2021/07/05 09:10:28;;;;;;;;;;;;;;;29.51;39.82;99978.00;5076542;28;783;-37
2021/07/05 09:13:03;;;;;;;;;;;;;;;29.46;39.61;99979.47;5076644;28;748;-40
2021/07/05 09:15:33;;;;;;;;;;;;;;;29.39;39.63;99984.13;5075978;28;947;-37
2021/07/05 09:17:59;;;;;;;;;;;;;;;29.52;39.40;99985.91;5076662;28;727;-38
2021/07/05 09:20:24;;;;;;;;;;;;;;;29.56;39.80;99972.75;5076051;28;728;-33
2021/07/05 09:23:09;;;;;;;;;;;;;;;29.72;39.87;99970.56;5076703;28;1902;-33
2021/07/05 09:25:35;;;;;;;;;;;;;;;29.68;40.23;99972.88;5076454;28;764;-34
2021/07/05 09:28:01;;;;;;;;;;;;;;;29.65;39.66;99976.03;5076110;28;863;-41
2021/07/05 09:30:33;;;;;;;;;;;;;;;29.77;39.47;99978.88;5076099;28;951;-39
2021/07/05 09:33:18;;;;;;;;;;;;;;;29.81;39.67;99970.09;5076182;28;543;-41
2021/07/05 09:35:43;;;;;;;;;;;;;;;29.78;39.50;99970.53;5075915;28;826;-41
2021/07/05 09:38:09;;;;;;;;;;;;;;;29.90;39.44;99967.09;5076423;28;823;-41
2021/07/05 09:40:35;;;;;;;;;;;;;;;29.92;39.55;99965.84;5076235;28;841;-38
2021/07/05 09:43:00;;;;;;;;;;;;;;;29.88;39.31;99956.47;5075879;28;1914;-41
2021/07/05 09:45:30;;;;;;;;;;;;;;;29.93;39.43;99958.53;5057738;28;924;-41
2021/07/05 09:48:10;;;;;;;;;;;;;;;29.95;39.19;99961.84;5076410;28;821;-40
2021/07/05 09:50:36;;;;;;;;;;;;;;;30.03;39.57;99964.28;5075762;28;847;-40
2021/07/05 09:53:21;;;;;;;;;;;;;;;29.91;41.92;99968.78;5076209;28;1314;-41
2021/07/05 09:55:46;;;;;;;;;;;;;;;30.01;41.93;99963.66;5077821;28;1298;-41
2021/07/05 09:58:11;;;;;;;;;;;;;;;30.01;42.52;99969.09;5080166;28;807;-41
2021/07/05 10:00:37;;;;;;;;;;;;;;;30.05;43.32;99969.47;5061760;28;971;-41
2021/07/05 10:03:06;;;;;;;;;;;;;;;30.11;43.52;99965.06;5079922;28;1965;-41
2021/07/05 10:05:33;;;;;;;;;;;;;;;30.06;43.45;99968.44;5061495;28;815;-41
2021/07/05 10:07:59;;;;;;;;;;;;;;;30.15;42.69;99966.25;5079862;28;756;-41
2021/07/05 10:10:24;;;;;;;;;;;;;;;30.17;42.57;99970.44;5079461;28;800;-41
2021/07/05 10:12:51;;;;;;;;;;;;;;;30.05;42.79;99959.47;5079172;28;771;-41
2021/07/05 10:15:16;;;;;;;;;;;;;;;30.05;41.33;99966.75;5079311;28;958;-41
2021/07/05 10:17:57;;;;;;;;;;;;;;;29.84;39.05;99952.56;5079767;28;926;-40
2021/07/05 10:20:26;;;;;;;;;;;;;;;29.62;39.08;99962.94;5079767;28;766;-39
2021/07/05 10:22:52;;;;;;;;;;;;;;;29.05;38.56;99957.19;5079374;28;1918;-41
2021/07/05 10:25:18;;;;;;;;;;;;;;;29.56;37.00;99962.72;5079095;28;798;-40
2021/07/05 10:27:43;;;;;;;;;;;;;;;29.56;37.11;99957.31;5079298;28;727;-40
2021/07/05 10:30:09;;;;;;;;;;;;;;;29.67;37.26;99963.94;5079151;28;1010;-39
2021/07/05 10:32:34;;;;;;;;;;;;;;;29.56;37.58;99951.88;5079296;28;774;-41
2021/07/05 10:35:00;;;;;;;;;;;;;;;29.63;37.42;99959.19;5079021;28;878;-40
2021/07/05 10:37:36;;;;;;;;;;;;;;;29.55;37.48;99954.81;5061446;28;839;-39
2021/07/05 10:40:02;;;;;;;;;;;;;;;29.53;37.58;99954.22;5060940;28;881;-40
2021/07/05 10:42:29;;;;;;;;;;;;;;;29.46;38.03;99954.28;5078984;28;1914;-40
2021/07/05 10:44:54;;;;;;;;;;;;;;;29.66;37.83;99953.34;5078561;28;896;-38
2021/07/05 10:47:38;;;;;;;;;;;;;;;29.70;37.34;99941.81;5078922;28;814;-39
2021/07/05 10:50:03;;;;;;;;;;;;;;;29.48;37.81;99954.06;5079402;28;740;-39
2021/07/05 10:52:29;;;;;;;;;;;;;;;29.59;37.23;99958.78;5078878;28;992;-39
2021/07/05 10:54:54;;;;;;;;;;;;;;;29.62;36.79;99946.69;5060587;28;1443;-37
2021/07/05 10:57:20;;;;;;;;;;;;;;;29.79;37.51;99953.22;5078341;28;764;-35
2021/07/05 10:59:46;;;;;;;;;;;;;;;29.92;37.99;99954.16;5078270;28;966;-34
2021/07/05 11:02:32;;;;;;;;;;;;;;;30.00;38.32;99956.59;5078963;28;1959;-37
2021/07/05 11:04:57;;;;;;;;;;;;;;;29.99;38.75;99964.94;5078974;28;803;-36
2021/07/05 11:07:24;;;;;;;;;;;;;;;30.03;38.62;99966.19;5077783;28;807;-37
2021/07/05 11:09:53;;;;;;;;;;;;;;;30.09;38.63;99959.88;5078727;28;843;-37
2021/07/05 11:12:37;;;;;;;;;;;;;;;30.09;38.75;99956.31;5078845;28;833;-38
2021/07/05 11:15:03;;;;;;;;;;;;;;;30.15;38.55;99953.53;5077963;28;960;-38
2021/07/05 11:17:29;;;;;;;;;;;;;;;30.16;38.82;99954.38;5078213;28;803;-38
2021/07/05 11:19:55;;;;;;;;;;;;;;;30.16;38.89;99963.31;5060405;28;1512;-38
2021/07/05 11:22:28;;;;;;;;;;;;;;;30.21;38.90;99960.00;5078131;28;1898;-38
2021/07/05 11:25:13;;;;;;;;;;;;;;;30.21;38.89;99951.84;5078052;28;772;-38
2021/07/05 11:27:49;;;;;;;;;;;;;;;30.21;38.92;99948.31;5066967;28;1621;-35
2021/07/05 11:30:14;;;;;;;;;;;;;;;30.17;39.19;99956.88;5078408;28;1076;-38
2021/07/05 11:32:41;;;;;;;;;;;;;;;30.16;39.14;99955.19;5077873;28;781;-36
2021/07/05 11:35:42;;;;;;;;;;;;;;;30.12;39.09;99948.56;5077961;28;787;-37
2021/07/05 11:38:08;;;;;;;;;;;;;;;30.25;39.18;99941.38;5016069;28;1066;-37
2021/07/05 11:40:41;;;;;;;;;;;;;;;30.28;39.31;99947.19;5065429;28;940;-37
2021/07/05 11:43:06;;;;;;;;;;;;;;;30.22;39.23;99939.94;5077975;28;1959;-39
2021/07/05 11:45:38;;;;;;;;;;;;;;;30.26;39.56;99941.13;5077371;28;907;-39
2021/07/05 11:48:04;;;;;;;;;;;;;;;30.21;39.66;99946.44;5077284;28;874;-36
2021/07/05 11:50:30;;;;;;;;;;;;;;;30.15;39.61;99937.25;5077848;28;803;-37
2021/07/05 11:52:57;;;;;;;;;;;;;;;30.11;39.82;99933.34;5077387;28;1224;-37
2021/07/05 11:55:23;;;;;;;;;;;;;;;30.13;39.53;99935.84;5077449;28;779;-40
2021/07/05 11:57:49;;;;;;;;;;;;;;;30.13;39.81;99933.13;5077777;28;810;-37
2021/07/05 12:00:16;;;;;;;;;;;;;;;30.16;39.91;99924.53;5077178;28;1030;-37
2021/07/05 12:02:41;;;;;;;;;;;;;;;30.21;39.66;99932.03;5076838;28;1914;-38
2021/07/05 12:05:07;;;;;;;;;;;;;;;30.21;39.73;99930.16;5077614;28;810;-38
2021/07/05 12:07:33;;;;;;;;;;;;;;;30.14;39.91;99927.47;5077520;28;732;-39
2021/07/05 12:09:58;;;;;;;;;;;;;;;30.22;39.81;99926.38;5077034;28;874;-39
2021/07/05 12:12:23;;;;;;;;;;;;;;;30.23;40.06;99919.09;5077547;28;751;-39
2021/07/05 12:14:49;;;;;;;;;;;;;;;30.23;40.04;99917.19;5076654;28;951;-39
2021/07/05 12:17:15;;;;;;;;;;;;;;;30.18;40.06;99930.53;5077182;28;755;-39
2021/07/05 12:19:42;;;;;;;;;;;;;;;30.24;40.14;99918.00;5076448;28;827;-37
2021/07/05 12:22:17;;;;;;;;;;;;;;;30.25;39.96;99914.22;5077212;28;1969;-40
2021/07/05 12:24:43;;;;;;;;;;;;;;;30.24;40.13;99913.44;5076681;28;768;-38
2021/07/05 12:27:09;;;;;;;;;;;;;;;30.27;40.20;99917.56;5077279;28;740;-38
2021/07/05 12:29:44;;;;;;;;;;;;;;;30.34;39.96;99917.50;5076613;28;947;-38
2021/07/05 12:32:36;;;;;;;;;;;;;;;30.18;40.17;99911.56;5076546;28;815;-38
2021/07/05 12:35:05;;;;;;;;;;;;;;;30.06;40.00;99919.63;5073651;28;1895;-38
2021/07/05 12:37:31;;;;;;;;;;;;;;;30.05;40.36;99920.66;5075178;28;800;-38
2021/07/05 12:39:58;;;;;;;;;;;;;;;30.17;40.25;99918.88;5076658;28;787;-38
2021/07/05 12:42:27;;;;;;;;;;;;;;;30.08;40.27;99909.38;5062122;28;1900;-37
2021/07/05 12:44:53;;;;;;;;;;;;;;;30.10;39.70;99911.84;5065885;28;903;-38
2021/07/05 12:47:19;;;;;;;;;;;;;;;30.14;40.37;99904.94;5076609;28;767;-36
2021/07/05 12:49:44;;;;;;;;;;;;;;;30.23;40.20;99894.66;5076850;28;842;-39
2021/07/05 12:52:09;;;;;;;;;;;;;;;30.19;39.44;99896.97;5058673;28;960;-38
2021/07/05 12:54:38;;;;;;;;;;;;;;;30.26;39.93;99892.31;5076452;28;783;-38
2021/07/05 12:57:11;;;;;;;;;;;;;;;30.22;39.99;99885.69;5076691;28;799;-37
2021/07/05 12:59:38;;;;;;;;;;;;;;;30.31;39.66;99899.78;5076711;28;994;-38
2021/07/05 13:02:04;;;;;;;;;;;;;;;30.19;39.61;99894.25;5076768;28;1913;-37